createdAt,value
2017-08-09T00:01:31.709Z,79.10
2017-08-09T00:03:59.224Z,78.90
2017-08-09T00:06:26.714Z,78.50
2017-08-09T00:08:54.265Z,78.10
2017-08-09T00:11:22.655Z,77.60
2017-08-09T00:13:51.049Z,77.70
2017-08-09T00:16:18.587Z,77.60
2017-08-09T00:18:46.829Z,77.30
2017-08-09T00:21:14.437Z,77.30
2017-08-09T00:23:41.902Z,77.60
2017-08-09T00:26:09.427Z,77.10
2017-08-09T00:28:36.938Z,76.80
2017-08-09T00:31:04.405Z,77.50
2017-08-09T00:33:31.859Z,77.30
2017-08-09T00:35:59.695Z,77.30
2017-08-09T00:38:27.250Z,77.50
2017-08-09T00:40:54.793Z,77.90
2017-08-09T00:43:23.046Z,78.10
2017-08-09T00:45:51.403Z,78.30
2017-08-09T00:48:18.956Z,78.50
2017-08-09T00:50:46.450Z,78.20
2017-08-09T00:53:13.961Z,78.40
2017-08-09T00:55:41.428Z,78.30
2017-08-09T00:58:08.947Z,78.60
2017-08-09T01:00:37.324Z,78.50
2017-08-09T01:03:08.949Z,78.50
2017-08-09T01:05:36.504Z,78.70
2017-08-09T01:08:05.310Z,78.70
2017-08-09T01:10:33.552Z,78.70
2017-08-09T01:13:01.067Z,78.60
2017-08-09T01:15:29.438Z,78.90
2017-08-09T01:17:56.895Z,78.90
2017-08-09T01:20:25.192Z,78.90
2017-08-09T01:22:52.698Z,78.90
2017-08-09T01:25:20.180Z,78.90
2017-08-09T01:27:47.736Z,79.30
2017-08-09T01:30:15.274Z,79.40
2017-08-09T01:32:42.763Z,79.70
2017-08-09T01:35:10.245Z,79.60
2017-08-09T01:37:37.865Z,79.30
2017-08-09T01:40:05.408Z,78.70
2017-08-09T01:42:33.043Z,78.70
2017-08-09T01:45:00.683Z,78.60
2017-08-09T01:47:28.339Z,78.60
2017-08-09T01:49:56.707Z,78.70
2017-08-09T01:52:24.301Z,79.30
2017-08-09T01:54:51.954Z,78.90
2017-08-09T01:57:19.572Z,79.20
2017-08-09T01:59:47.100Z,78.90
2017-08-09T02:02:14.654Z,78.50
2017-08-09T02:04:42.259Z,78.60
2017-08-09T02:07:09.810Z,78.60
2017-08-09T02:09:37.271Z,78.80
2017-08-09T02:12:04.807Z,78.90
2017-08-09T02:14:32.314Z,79.00
2017-08-09T02:16:59.844Z,78.50
2017-08-09T02:19:27.355Z,77.90
2017-08-09T02:21:54.831Z,77.80
2017-08-09T02:24:22.331Z,77.50
2017-08-09T02:26:50.023Z,77.70
2017-08-09T02:29:17.515Z,77.80
2017-08-09T02:31:45.904Z,78.10
2017-08-09T02:34:13.550Z,78.10
2017-08-09T02:36:41.062Z,78.00
2017-08-09T02:39:08.639Z,77.90
2017-08-09T02:41:36.129Z,78.10
2017-08-09T02:44:03.859Z,78.00
2017-08-09T02:46:31.371Z,77.90
2017-08-09T02:48:58.919Z,78.20
2017-08-09T02:51:26.415Z,77.80
2017-08-09T02:53:53.885Z,77.60
2017-08-09T02:56:21.379Z,77.70
2017-08-09T02:58:48.838Z,77.20
2017-08-09T03:01:16.447Z,77.40
2017-08-09T03:03:46.011Z,77.40
2017-08-09T03:06:13.708Z,77.40
2017-08-09T03:08:41.286Z,77.70
2017-08-09T03:11:08.899Z,77.60
2017-08-09T03:13:36.550Z,77.80
2017-08-09T03:16:04.170Z,78.00
2017-08-09T03:18:32.433Z,78.70
2017-08-09T03:21:00.732Z,78.60
2017-08-09T03:23:28.370Z,78.50
2017-08-09T03:25:55.832Z,78.30
2017-08-09T03:28:23.391Z,78.30
2017-08-09T03:30:50.953Z,78.10
2017-08-09T03:33:18.499Z,78.00
2017-08-09T03:35:46.032Z,78.00
2017-08-09T03:38:13.789Z,78.00
2017-08-09T03:40:41.300Z,78.40
2017-08-09T03:43:08.939Z,78.40
2017-08-09T03:45:36.396Z,78.30
2017-08-09T03:48:03.872Z,78.50
2017-08-09T03:50:32.315Z,78.40
2017-08-09T03:52:59.898Z,78.50
2017-08-09T03:55:27.380Z,78.70
2017-08-09T03:57:55.775Z,78.70
2017-08-09T04:00:24.847Z,78.40
2017-08-09T04:02:53.103Z,78.90
2017-08-09T04:05:21.486Z,78.80
2017-08-09T04:07:49.062Z,78.80
2017-08-09T04:10:17.366Z,79.00
2017-08-09T04:12:44.851Z,79.00
2017-08-09T04:15:12.441Z,79.10
2017-08-09T04:17:40.724Z,78.60
2017-08-09T04:20:08.342Z,78.90
2017-08-09T04:22:35.925Z,79.00
2017-08-09T04:25:03.475Z,79.00
2017-08-09T04:27:31.152Z,79.10
2017-08-09T04:29:58.704Z,78.70
2017-08-09T04:32:26.343Z,78.90
2017-08-09T04:34:53.839Z,80.10
2017-08-09T04:37:21.335Z,80.50
2017-08-09T04:39:48.798Z,81.60
2017-08-09T04:42:16.297Z,82.40
2017-08-09T04:44:44.613Z,82.10
2017-08-09T04:47:12.111Z,82.50
2017-08-09T04:49:40.765Z,83.60
2017-08-09T04:52:08.314Z,83.00
2017-08-09T04:54:35.844Z,83.20
2017-08-09T04:57:04.147Z,83.40
2017-08-09T04:59:32.382Z,83.30
2017-08-09T05:02:00.131Z,83.00
2017-08-09T05:04:27.652Z,82.90
2017-08-09T05:06:55.157Z,82.80
2017-08-09T05:09:28.665Z,82.20
2017-08-09T05:11:56.126Z,82.20
2017-08-09T05:14:23.821Z,82.50
2017-08-09T05:16:52.105Z,82.00
2017-08-09T05:19:19.698Z,82.00
2017-08-09T05:21:47.996Z,81.90
2017-08-09T05:24:15.449Z,81.80
2017-08-09T05:26:43.560Z,81.70
2017-08-09T05:29:11.040Z,80.70
2017-08-09T05:31:38.531Z,81.00
2017-08-09T05:34:06.042Z,80.30
2017-08-09T05:36:33.524Z,80.20
2017-08-09T05:39:01.053Z,80.00
2017-08-09T05:41:28.572Z,79.80
2017-08-09T05:43:59.409Z,79.10
2017-08-09T05:46:26.919Z,79.50
2017-08-09T05:48:55.959Z,78.70
2017-08-09T05:51:23.532Z,78.70
2017-08-09T05:53:51.127Z,77.90
2017-08-09T05:56:19.352Z,77.70
2017-08-09T05:58:46.816Z,77.60
2017-08-09T06:01:15.362Z,76.90
2017-08-09T06:03:44.481Z,76.10
2017-08-09T06:06:12.017Z,76.10
2017-08-09T06:08:39.555Z,75.40
2017-08-09T06:11:07.588Z,75.20
2017-08-09T06:13:35.188Z,75.10
2017-08-09T06:16:02.831Z,74.40
2017-08-09T06:18:31.278Z,74.00
2017-08-09T06:20:58.941Z,73.40
2017-08-09T06:23:27.725Z,72.30
2017-08-09T06:26:03.989Z,71.70
2017-08-09T06:28:31.479Z,72.30
2017-08-09T06:30:59.656Z,72.40
2017-08-09T06:33:28.443Z,72.50
2017-08-09T06:35:56.693Z,72.70
2017-08-09T06:38:24.172Z,72.30
2017-08-09T06:40:51.702Z,72.40
2017-08-09T06:43:21.227Z,72.30
2017-08-09T06:45:51.122Z,72.40
2017-08-09T06:48:18.769Z,71.50
2017-08-09T06:50:46.407Z,72.20
2017-08-09T06:53:14.759Z,72.10
2017-08-09T06:55:42.268Z,72.70
2017-08-09T06:58:10.620Z,72.30
2017-08-09T07:00:38.202Z,71.40
2017-08-09T07:03:06.500Z,70.50
2017-08-09T07:05:34.033Z,70.50
2017-08-09T07:08:02.366Z,69.70
2017-08-09T07:10:29.973Z,69.70
2017-08-09T07:12:58.445Z,67.70
2017-08-09T07:15:25.915Z,62.30
2017-08-09T07:17:53.607Z,59.10
2017-08-09T07:20:21.131Z,54.00
2017-08-09T07:22:48.833Z,51.90
2017-08-09T07:25:16.356Z,49.20
2017-08-09T07:27:43.885Z,46.90
2017-08-09T07:30:11.551Z,46.00
2017-08-09T07:32:39.026Z,44.80
2017-08-09T07:35:06.792Z,44.40
2017-08-09T07:37:35.471Z,44.30
2017-08-09T07:40:04.589Z,48.90
2017-08-09T07:42:32.157Z,48.90
2017-08-09T07:44:59.704Z,51.50
2017-08-09T07:47:28.052Z,53.10
2017-08-09T07:49:55.641Z,54.70
2017-08-09T07:52:23.954Z,54.00
2017-08-09T07:54:51.587Z,54.00
2017-08-09T07:57:19.067Z,53.40
2017-08-09T07:59:46.662Z,54.00
2017-08-09T08:02:15.155Z,53.00
2017-08-09T08:04:43.637Z,53.90
2017-08-09T08:07:11.473Z,53.10
2017-08-09T08:09:39.936Z,50.90
2017-08-09T08:12:07.644Z,50.90
2017-08-09T08:14:35.564Z,51.10
2017-08-09T08:17:03.073Z,52.30
2017-08-09T08:24:48.900Z,53.30
2017-08-09T08:27:17.977Z,52.50
2017-08-09T08:29:45.528Z,52.50
2017-08-09T08:32:14.031Z,51.10
2017-08-09T08:34:41.515Z,50.90
2017-08-09T08:37:09.088Z,51.70
2017-08-09T08:39:36.750Z,52.80
2017-08-09T08:42:04.300Z,53.30
2017-08-09T08:44:32.686Z,53.30
2017-08-09T08:47:01.103Z,53.90
2017-08-09T08:49:28.788Z,52.50
2017-08-09T08:51:56.273Z,50.30
2017-08-09T08:54:24.109Z,48.50
2017-08-09T08:56:51.707Z,48.60
2017-08-09T08:59:19.386Z,48.70
2017-08-09T09:01:46.974Z,48.50
2017-08-09T09:04:14.430Z,49.10
2017-08-09T09:06:42.096Z,48.60
2017-08-09T09:09:09.576Z,48.40
2017-08-09T09:11:37.064Z,50.10
2017-08-09T09:14:04.687Z,50.40
2017-08-09T09:16:32.317Z,50.90
2017-08-09T09:19:03.779Z,50.90
2017-08-09T09:21:31.363Z,51.10
2017-08-09T09:23:58.926Z,50.10
2017-08-09T09:26:26.824Z,49.60
2017-08-09T09:28:54.974Z,48.00
2017-08-09T09:31:22.596Z,47.40
2017-08-09T09:33:50.355Z,45.70
2017-08-09T09:36:17.925Z,44.20
2017-08-09T09:38:48.484Z,42.90
2017-08-09T09:41:22.387Z,41.00
2017-08-09T09:44:07.059Z,40.80
2017-08-09T09:46:36.526Z,40.70
2017-08-09T09:51:43.824Z,40.10
2017-08-09T09:54:13.297Z,41.30
2017-08-09T09:56:40.815Z,41.90
2017-08-09T09:59:09.394Z,42.30
2017-08-09T10:01:36.984Z,42.40
2017-08-09T10:04:05.001Z,42.00
2017-08-09T10:06:38.798Z,42.70
2017-08-09T10:09:06.711Z,44.50
2017-08-09T10:11:34.982Z,45.50
2017-08-09T10:14:02.585Z,46.60
2017-08-09T10:16:30.303Z,46.90
2017-08-09T10:18:58.668Z,47.90
2017-08-09T10:21:28.088Z,47.20
2017-08-09T10:26:42.785Z,46.60
2017-08-09T10:29:11.324Z,45.80
2017-08-09T10:31:39.597Z,42.80
2017-08-09T10:34:11.523Z,42.20
2017-08-09T10:36:45.931Z,40.90
2017-08-09T10:39:13.903Z,41.70
2017-08-09T10:41:41.519Z,41.30
2017-08-09T10:44:13.338Z,41.10
2017-08-09T10:46:48.751Z,41.00
2017-08-09T10:49:19.411Z,42.90
2017-08-09T10:51:47.572Z,43.70
2017-08-09T10:54:32.075Z,44.50
2017-08-09T10:57:01.676Z,44.30
2017-08-09T10:59:32.406Z,45.40
2017-08-09T11:02:01.633Z,44.60
2017-08-09T11:04:35.284Z,43.50
2017-08-09T11:07:12.223Z,42.60
2017-08-09T11:09:43.725Z,42.70
2017-08-09T11:12:16.117Z,42.40
2017-08-09T11:14:48.585Z,44.00
2017-08-09T11:17:16.530Z,45.10
2017-08-09T11:19:46.795Z,45.00
2017-08-09T11:22:25.456Z,45.10
2017-08-09T11:24:59.339Z,46.00
2017-08-09T11:27:31.700Z,45.80
2017-08-09T11:30:00.245Z,45.80
2017-08-09T11:32:28.916Z,44.80
2017-08-09T11:34:57.181Z,44.70
2017-08-09T11:37:27.965Z,44.70
2017-08-09T11:39:57.678Z,45.70
2017-08-09T11:42:27.160Z,44.90
2017-08-09T11:44:54.946Z,44.90
2017-08-09T11:47:22.576Z,45.10
2017-08-09T11:49:51.194Z,44.10
2017-08-09T11:52:26.842Z,44.00
2017-08-09T11:54:55.202Z,45.00
2017-08-09T11:57:24.722Z,45.70
2017-08-09T11:59:52.792Z,46.00
2017-08-09T12:02:20.351Z,45.70
2017-08-09T12:04:47.988Z,46.00
2017-08-09T12:07:18.543Z,45.80
2017-08-09T12:09:46.121Z,45.10
2017-08-09T12:12:16.236Z,44.70
2017-08-09T12:14:44.105Z,44.80
2017-08-09T12:17:11.664Z,43.70
2017-08-09T12:19:40.285Z,44.60
2017-08-09T12:22:08.333Z,44.90
2017-08-09T12:24:35.946Z,44.50
2017-08-09T12:27:03.594Z,43.60
2017-08-09T12:29:31.132Z,44.30
2017-08-09T12:31:58.619Z,44.80
2017-08-09T12:34:26.299Z,44.50
2017-08-09T12:36:55.206Z,45.90
2017-08-09T12:39:22.702Z,45.20
2017-08-09T12:41:50.258Z,44.60
2017-08-09T12:44:17.916Z,43.90
2017-08-09T12:46:45.396Z,43.80
2017-08-09T12:49:16.205Z,43.10
2017-08-09T12:51:44.390Z,44.20
2017-08-09T12:54:12.641Z,44.00
2017-08-09T12:56:41.247Z,42.20
2017-08-09T12:59:10.246Z,42.20
2017-08-09T13:01:37.967Z,42.20
2017-08-09T13:04:05.627Z,43.00
2017-08-09T13:06:33.209Z,43.50
2017-08-09T13:09:00.720Z,42.90
2017-08-09T13:11:28.203Z,43.00
2017-08-09T13:13:55.872Z,43.60
2017-08-09T13:16:23.563Z,43.70
2017-08-09T13:18:52.910Z,42.00
2017-08-09T13:21:20.475Z,42.80
2017-08-09T13:23:48.943Z,43.30
2017-08-09T13:26:16.735Z,42.90
2017-08-09T13:28:44.257Z,43.50
2017-08-09T13:31:12.723Z,43.70
2017-08-09T13:33:40.996Z,44.20
2017-08-09T13:36:08.649Z,43.60
2017-08-09T13:38:36.182Z,44.10
2017-08-09T13:41:03.701Z,44.00
2017-08-09T13:43:31.544Z,44.20
2017-08-09T13:45:59.542Z,45.30
2017-08-09T13:48:27.611Z,43.20
2017-08-09T13:50:56.012Z,44.10
2017-08-09T13:53:23.551Z,44.00
2017-08-09T13:55:51.044Z,43.60
2017-08-09T13:58:19.800Z,42.70
2017-08-09T14:00:47.756Z,42.80
2017-08-09T14:03:15.403Z,43.30
2017-08-09T14:05:44.718Z,42.20
2017-08-09T14:08:12.353Z,42.60
2017-08-09T14:10:40.007Z,42.80
2017-08-09T14:13:07.750Z,43.40
2017-08-09T14:15:35.403Z,44.20
2017-08-09T14:18:04.382Z,44.20
2017-08-09T14:20:32.204Z,42.90
2017-08-09T14:23:00.235Z,42.00
2017-08-09T14:25:28.137Z,43.20
2017-08-09T14:27:57.375Z,43.20
2017-08-09T14:30:25.029Z,43.40
2017-08-09T14:32:53.350Z,41.00
2017-08-09T14:35:21.865Z,41.50
2017-08-09T14:37:49.431Z,41.50
2017-08-09T14:40:17.394Z,41.20
2017-08-09T14:42:44.980Z,41.00
2017-08-09T14:45:12.485Z,40.50
2017-08-09T14:47:40.200Z,41.10
2017-08-09T14:50:08.341Z,42.00
2017-08-09T14:52:36.036Z,40.60
2017-08-09T14:55:04.261Z,41.10
2017-08-09T14:57:32.917Z,41.70
2017-08-09T15:00:01.580Z,41.20
2017-08-09T15:02:29.416Z,41.10
2017-08-09T15:04:57.052Z,41.40
2017-08-09T15:07:24.740Z,41.50
2017-08-09T15:09:53.714Z,41.40
2017-08-09T15:12:21.365Z,42.50
2017-08-09T15:14:48.939Z,42.40
2017-08-09T15:17:16.723Z,41.60
2017-08-09T15:19:44.491Z,42.80
2017-08-09T15:22:12.202Z,42.20
2017-08-09T15:24:40.669Z,42.90
2017-08-09T15:27:08.527Z,42.90
2017-08-09T15:29:36.885Z,42.20
2017-08-09T15:32:04.860Z,42.20
2017-08-09T15:34:32.522Z,42.30
2017-08-09T15:37:00.299Z,42.30
2017-08-09T15:39:29.009Z,42.30
2017-08-09T15:42:00.735Z,42.50
2017-08-09T15:44:28.356Z,42.90
2017-08-09T15:46:56.769Z,42.30
2017-08-09T15:49:24.652Z,42.10
2017-08-09T15:51:52.257Z,41.90
2017-08-09T15:54:20.359Z,42.20
2017-08-09T15:56:50.585Z,42.30
2017-08-09T15:59:20.372Z,42.90
2017-08-09T16:01:48.970Z,41.60
2017-08-09T16:04:16.925Z,41.80
2017-08-09T16:06:44.730Z,41.70
2017-08-09T16:09:12.497Z,42.30
2017-08-09T16:11:40.931Z,43.10
2017-08-09T16:14:13.294Z,43.30
2017-08-09T16:16:41.757Z,42.90
2017-08-09T16:19:09.449Z,42.20
2017-08-09T16:24:27.188Z,42.50
2017-08-09T16:27:01.704Z,41.90
2017-08-09T16:29:30.252Z,42.30
2017-08-09T16:34:39.658Z,42.70
2017-08-09T16:37:08.408Z,42.90
2017-08-09T16:39:37.209Z,43.30
2017-08-09T16:42:07.922Z,43.20
2017-08-09T16:47:20.691Z,43.50
2017-08-09T16:49:51.072Z,43.50
2017-08-09T16:52:19.924Z,44.00
2017-08-09T16:54:48.963Z,43.90
2017-08-09T16:57:20.313Z,44.10
2017-08-09T17:02:28.582Z,44.90
2017-08-09T17:04:58.082Z,44.80
2017-08-09T17:07:30.920Z,44.70
2017-08-09T17:10:04.319Z,44.90
2017-08-09T17:17:57.865Z,45.80
2017-08-09T17:20:27.264Z,46.00
2017-08-09T17:22:56.620Z,46.20
2017-08-09T17:25:24.302Z,46.20
2017-08-09T17:27:54.249Z,46.00
2017-08-09T17:30:25.976Z,45.90
2017-08-09T17:32:55.479Z,46.60
2017-08-09T17:35:24.156Z,46.10
2017-08-09T17:37:52.822Z,46.20
2017-08-09T17:40:20.677Z,46.70
2017-08-09T17:42:49.688Z,46.60
2017-08-09T17:45:17.324Z,46.60
2017-08-09T17:47:45.206Z,47.00
2017-08-09T17:50:13.111Z,47.50
2017-08-09T17:52:40.636Z,48.10
2017-08-09T17:55:11.743Z,48.00
2017-08-09T17:57:44.235Z,47.90
2017-08-09T18:00:16.866Z,47.90
2017-08-09T18:02:55.387Z,48.30
2017-08-09T18:05:23.762Z,48.70
2017-08-09T18:08:18.802Z,49.20
2017-08-09T18:10:51.606Z,49.10
2017-08-09T18:13:28.047Z,49.20
2017-08-09T18:16:01.484Z,49.90
2017-08-09T18:18:29.190Z,50.50
2017-08-09T18:20:58.730Z,51.00
2017-08-09T18:23:32.827Z,50.80
2017-08-09T18:26:01.979Z,51.10
2017-08-09T18:28:32.663Z,51.10
2017-08-09T18:31:00.960Z,50.90
2017-08-09T18:33:30.170Z,50.80
2017-08-09T18:36:03.713Z,50.70
2017-08-09T18:38:33.499Z,50.90
2017-08-09T18:41:02.377Z,51.00
2017-08-09T18:43:30.121Z,51.20
2017-08-09T18:45:58.199Z,51.20
2017-08-09T18:48:25.956Z,51.60
2017-08-09T18:50:54.862Z,51.70
2017-08-09T18:53:23.320Z,51.80
2017-08-09T18:55:52.481Z,52.20
2017-08-09T18:58:21.013Z,52.40
2017-08-09T19:00:50.347Z,52.60
2017-08-09T19:03:19.831Z,52.80
2017-08-09T19:05:54.396Z,53.20
2017-08-09T19:08:23.542Z,53.40
2017-08-09T19:13:31.084Z,53.90
2017-08-09T19:15:58.806Z,53.80
2017-08-09T19:18:29.179Z,54.10
2017-08-09T19:20:57.802Z,54.50
2017-08-09T19:23:26.682Z,55.10
2017-08-09T19:25:54.411Z,55.00
2017-08-09T19:28:22.010Z,54.80
2017-08-09T19:30:50.203Z,55.10
2017-08-09T19:33:17.879Z,56.00
2017-08-09T19:35:45.639Z,55.10
2017-08-09T19:38:14.255Z,55.30
2017-08-09T19:40:42.998Z,55.00
2017-08-09T19:43:16.641Z,54.90
2017-08-09T19:45:48.340Z,54.70
2017-08-09T19:48:36.580Z,54.50
2017-08-09T19:51:07.238Z,54.70
2017-08-09T19:53:41.990Z,54.90
2017-08-09T19:56:22.117Z,55.50
2017-08-09T19:59:00.529Z,55.40
2017-08-09T20:01:33.406Z,55.80
2017-08-09T20:04:04.731Z,56.10
2017-08-09T20:06:33.952Z,55.80
2017-08-09T20:09:12.249Z,56.60
2017-08-09T20:22:33.287Z,57.40
2017-08-09T20:25:01.695Z,58.10
2017-08-09T20:27:30.626Z,58.30
2017-08-09T20:30:00.150Z,59.00
2017-08-09T20:32:28.019Z,59.40
2017-08-09T20:34:56.153Z,59.50
2017-08-09T20:37:24.536Z,60.30
2017-08-09T20:39:52.733Z,60.90
2017-08-09T20:42:24.569Z,60.90
2017-08-09T20:44:52.856Z,60.90
2017-08-09T20:47:21.634Z,61.00
2017-08-09T20:49:49.941Z,61.40
2017-08-09T20:52:21.862Z,61.80
2017-08-09T20:54:49.871Z,62.80
2017-08-09T20:57:19.588Z,61.80
2017-08-09T20:59:47.400Z,62.40
2017-08-09T21:02:17.291Z,62.60
2017-08-09T21:04:47.831Z,63.00
2017-08-09T21:07:16.109Z,63.40
2017-08-09T21:09:43.794Z,63.30
2017-08-09T21:12:11.723Z,63.20
2017-08-09T21:14:39.335Z,63.60
2017-08-09T21:17:08.439Z,63.50
2017-08-09T21:19:36.253Z,63.60
2017-08-09T21:22:04.740Z,63.90
2017-08-09T21:24:33.074Z,63.90
2017-08-09T21:27:00.791Z,64.30
2017-08-09T21:29:28.384Z,64.40
2017-08-09T21:31:56.307Z,64.40
2017-08-09T21:34:24.891Z,64.40
2017-08-09T21:36:54.323Z,63.90
2017-08-09T21:39:22.802Z,64.30
2017-08-09T21:41:50.436Z,64.70
2017-08-09T21:44:18.690Z,64.60
2017-08-09T21:46:46.831Z,64.90
2017-08-09T21:49:14.540Z,64.60
2017-08-09T21:51:42.199Z,65.40
2017-08-09T21:54:10.371Z,65.80
2017-08-09T21:56:38.159Z,66.00
2017-08-09T21:59:06.155Z,66.00
2017-08-09T22:01:35.291Z,66.30
2017-08-09T22:04:02.905Z,66.30
2017-08-09T22:06:30.647Z,66.20
2017-08-09T22:08:58.485Z,66.40
2017-08-09T22:11:26.330Z,66.30
2017-08-09T22:13:54.191Z,66.50
2017-08-09T22:16:24.125Z,66.70
2017-08-09T22:18:52.030Z,66.90
2017-08-09T22:21:21.588Z,67.00
2017-08-09T22:23:50.088Z,67.30
2017-08-09T22:26:17.732Z,67.30
2017-08-09T22:28:45.372Z,67.30
2017-08-09T22:31:13.159Z,68.00
2017-08-09T22:33:40.768Z,68.20
2017-08-09T22:36:08.263Z,68.30
2017-08-09T22:38:35.916Z,67.90
2017-08-09T22:41:03.648Z,68.10
2017-08-09T22:43:31.772Z,68.00
2017-08-09T22:45:59.731Z,68.00
2017-08-09T22:48:29.043Z,68.30
2017-08-09T22:50:57.501Z,68.30
2017-08-09T22:53:25.147Z,68.30
2017-08-09T22:55:57.941Z,68.60
2017-08-09T22:58:30.526Z,68.50
2017-08-09T23:00:58.806Z,68.20
2017-08-09T23:03:26.807Z,68.70
2017-08-09T23:05:55.151Z,68.50
2017-08-09T23:08:23.353Z,68.40
2017-08-09T23:10:52.356Z,68.10
2017-08-09T23:13:20.848Z,68.50
2017-08-09T23:15:48.589Z,68.30
2017-08-09T23:18:16.447Z,68.30
2017-08-09T23:20:44.203Z,68.90
2017-08-09T23:23:12.294Z,68.70
2017-08-09T23:25:40.251Z,68.70
2017-08-09T23:28:08.004Z,68.90
2017-08-09T23:30:35.847Z,69.00
2017-08-09T23:33:04.373Z,69.40
2017-08-09T23:35:37.572Z,69.90
2017-08-09T23:38:05.786Z,70.60
2017-08-09T23:40:33.828Z,70.80
2017-08-09T23:43:01.581Z,71.00
2017-08-09T23:45:29.330Z,71.40
2017-08-09T23:47:57.913Z,72.00
2017-08-09T23:50:25.831Z,72.20
2017-08-09T23:52:54.320Z,71.00
2017-08-09T23:55:23.681Z,70.10
2017-08-09T23:57:51.468Z,70.50
